sensor_id;sensor_type;location;lat;lon;timestamp;pressure;altitude;pressure_sealevel;temperature;humidity
72548;BME280;60570;50.848;6.776;2022-09-12T00:01:08;100659.66;;;20.13;57.31
72548;BME280;60570;50.848;6.776;2022-09-12T00:02:09;100654.81;;;20.13;57.57
72548;BME280;60570;50.848;6.776;2022-09-12T00:03:10;100654.00;;;20.09;57.58
72548;BME280;60570;50.848;6.776;2022-09-12T00:04:10;100653.56;;;20.07;57.36
72548;BME280;60570;50.848;6.776;2022-09-12T00:05:11;100656.41;;;20.07;57.39
72548;BME280;60570;50.848;6.776;2022-09-12T00:06:22;100658.13;;;20.22;57.33
72548;BME280;60570;50.848;6.776;2022-09-12T00:07:23;100646.75;;;20.15;57.22
72548;BME280;60570;50.848;6.776;2022-09-12T00:08:23;100650.75;;;20.07;57.38
72548;BME280;60570;50.848;6.776;2022-09-12T00:09:23;100649.94;;;20.03;57.52
72548;BME280;60570;50.848;6.776;2022-09-12T00:10:24;100652.75;;;20.03;57.33
72548;BME280;60570;50.848;6.776;2022-09-12T00:11:25;100647.09;;;20.03;57.47
72548;BME280;60570;50.848;6.776;2022-09-12T00:12:26;100641.47;;;20.00;57.71
72548;BME280;60570;50.848;6.776;2022-09-12T00:13:26;100646.72;;;20.01;57.55
72548;BME280;60570;50.848;6.776;2022-09-12T00:14:27;100648.34;;;20.09;57.15
72548;BME280;60570;50.848;6.776;2022-09-12T00:15:27;100639.88;;;20.06;57.35
72548;BME280;60570;50.848;6.776;2022-09-12T00:16:29;100646.31;;;19.99;57.69
72548;BME280;60570;50.848;6.776;2022-09-12T00:17:33;100642.69;;;20.02;57.74
72548;BME280;60570;50.848;6.776;2022-09-12T00:18:33;100637.44;;;19.97;57.61
72548;BME280;60570;50.848;6.776;2022-09-12T00:19:34;100644.28;;;20.00;57.55
72548;BME280;60570;50.848;6.776;2022-09-12T00:20:34;100647.09;;;20.03;57.70
72548;BME280;60570;50.848;6.776;2022-09-12T00:21:36;100651.16;;;20.06;57.34
72548;BME280;60570;50.848;6.776;2022-09-12T00:22:37;100641.47;;;20.03;57.52
72548;BME280;60570;50.848;6.776;2022-09-12T00:23:38;100643.44;;;19.96;57.72
72548;BME280;60570;50.848;6.776;2022-09-12T00:24:38;100649.47;;;19.91;57.97
72548;BME280;60570;50.848;6.776;2022-09-12T00:25:44;100643.44;;;19.92;57.83
72548;BME280;60570;50.848;6.776;2022-09-12T00:26:45;100641.88;;;20.02;57.60
72548;BME280;60570;50.848;6.776;2022-09-12T00:27:45;100641.88;;;19.98;57.27
72548;BME280;60570;50.848;6.776;2022-09-12T00:28:46;100634.16;;;19.92;57.88
72548;BME280;60570;50.848;6.776;2022-09-12T00:29:47;100629.34;;;19.96;57.63
72548;BME280;60570;50.848;6.776;2022-09-12T00:30:48;100632.97;;;19.93;57.70
72548;BME280;60570;50.848;6.776;2022-09-12T00:31:48;100635.81;;;20.00;57.45
72548;BME280;60570;50.848;6.776;2022-09-12T00:32:49;100636.22;;;19.98;57.64
72548;BME280;60570;50.848;6.776;2022-09-12T00:33:52;100634.22;;;20.06;56.87
72548;BME280;60570;50.848;6.776;2022-09-12T00:34:53;100637.03;;;19.99;57.19
72548;BME280;60570;50.848;6.776;2022-09-12T00:35:54;100630.56;;;19.98;57.18
72548;BME280;60570;50.848;6.776;2022-09-12T00:36:54;100632.63;;;20.08;57.08
72548;BME280;60570;50.848;6.776;2022-09-12T00:37:55;100629.81;;;20.01;57.12
72548;BME280;60570;50.848;6.776;2022-09-12T00:38:55;100626.19;;;20.11;57.29
72548;BME280;60570;50.848;6.776;2022-09-12T00:39:56;100629.81;;;20.05;57.07
72548;BME280;60570;50.848;6.776;2022-09-12T00:40:56;100634.28;;;20.13;56.98
72548;BME280;60570;50.848;6.776;2022-09-12T00:41:57;100632.22;;;20.06;57.09
72548;BME280;60570;50.848;6.776;2022-09-12T00:42:57;100628.59;;;20.09;57.07
72548;BME280;60570;50.848;6.776;2022-09-12T00:44:49;100629.81;;;20.08;56.91
72548;BME280;60570;50.848;6.776;2022-09-12T00:45:26;100629.41;;;20.06;56.95
72548;BME280;60570;50.848;6.776;2022-09-12T00:47:30;100628.63;;;20.13;56.88
72548;BME280;60570;50.848;6.776;2022-09-12T00:48:35;100622.13;;;20.02;57.13
72548;BME280;60570;50.848;6.776;2022-09-12T00:49:47;100620.13;;;20.06;57.28
72548;BME280;60570;50.848;6.776;2022-09-12T00:50:49;100620.94;;;20.03;56.85
72548;BME280;60570;50.848;6.776;2022-09-12T00:51:53;100621.72;;;20.03;57.29
72548;BME280;60570;50.848;6.776;2022-09-12T00:53:03;100616.47;;;19.98;57.22
72548;BME280;60570;50.848;6.776;2022-09-12T00:54:14;100623.38;;;20.08;56.92
72548;BME280;60570;50.848;6.776;2022-09-12T00:55:21;100618.06;;;19.96;57.38
72548;BME280;60570;50.848;6.776;2022-09-12T00:56:24;100618.88;;;19.96;57.32
72548;BME280;60570;50.848;6.776;2022-09-12T00:57:41;100616.94;;;20.14;56.78
72548;BME280;60570;50.848;6.776;2022-09-12T00:58:55;100622.19;;;20.09;56.72
72548;BME280;60570;50.848;6.776;2022-09-12T01:00:09;100622.13;;;20.05;57.13
72548;BME280;60570;50.848;6.776;2022-09-12T01:01:19;100617.78;;;20.15;56.78
72548;BME280;60570;50.848;6.776;2022-09-12T01:02:20;100623.00;;;20.16;56.50
72548;BME280;60570;50.848;6.776;2022-09-12T01:03:21;100616.53;;;20.09;56.87
72548;BME280;60570;50.848;6.776;2022-09-12T01:04:25;100614.88;;;20.01;56.96
72548;BME280;60570;50.848;6.776;2022-09-12T01:05:28;100612.06;;;20.01;56.60
72548;BME280;60570;50.848;6.776;2022-09-12T01:06:36;100616.91;;;20.04;56.76
72548;BME280;60570;50.848;6.776;2022-09-12T01:07:38;100612.47;;;19.99;56.84
72548;BME280;60570;50.848;6.776;2022-09-12T01:08:41;100611.25;;;20.00;56.88
72548;BME280;60570;50.848;6.776;2022-09-12T01:09:43;100613.66;;;19.98;56.97
72548;BME280;60570;50.848;6.776;2022-09-12T01:10:45;100614.06;;;20.04;56.91
72548;BME280;60570;50.848;6.776;2022-09-12T01:11:46;100621.69;;;19.96;56.81
72548;BME280;60570;50.848;6.776;2022-09-12T01:12:48;100613.31;;;20.07;56.85
72548;BME280;60570;50.848;6.776;2022-09-12T01:13:49;100603.25;;;20.16;56.45
72548;BME280;60570;50.848;6.776;2022-09-12T01:14:50;100611.69;;;20.09;56.56
72548;BME280;60570;50.848;6.776;2022-09-12T01:15:50;100614.47;;;20.02;56.80
72548;BME280;60570;50.848;6.776;2022-09-12T01:16:52;100616.91;;;20.04;56.65
72548;BME280;60570;50.848;6.776;2022-09-12T01:18:29;100611.69;;;20.09;56.70
72548;BME280;60570;50.848;6.776;2022-09-12T01:21:10;100615.25;;;19.96;57.00
72548;BME280;60570;50.848;6.776;2022-09-12T01:22:25;100611.31;;;20.11;56.57
72548;BME280;60570;50.848;6.776;2022-09-12T01:29:44;100599.16;;;20.00;56.69
72548;BME280;60570;50.848;6.776;2022-09-12T01:30:52;100598.38;;;19.99;56.50
72548;BME280;60570;50.848;6.776;2022-09-12T01:39:12;100593.56;;;20.07;56.19
72548;BME280;60570;50.848;6.776;2022-09-12T01:40:22;100601.59;;;20.01;56.39
72548;BME280;60570;50.848;6.776;2022-09-12T01:41:42;100595.97;;;20.01;56.62
72548;BME280;60570;50.848;6.776;2022-09-12T01:42:46;100599.91;;;19.86;56.83
72548;BME280;60570;50.848;6.776;2022-09-12T01:45:14;100601.13;;;19.85;56.81
72548;BME280;60570;50.848;6.776;2022-09-12T01:46:22;100601.97;;;19.96;56.73
72548;BME280;60570;50.848;6.776;2022-09-12T01:47:38;100600.34;;;19.95;56.58
72548;BME280;60570;50.848;6.776;2022-09-12T01:48:56;100599.97;;;19.97;56.64
72548;BME280;60570;50.848;6.776;2022-09-12T01:51:12;100599.16;;;20.00;56.35
72548;BME280;60570;50.848;6.776;2022-09-12T01:52:25;100596.72;;;19.98;56.41
72548;BME280;60570;50.848;6.776;2022-09-12T01:53:35;100593.91;;;19.98;56.39
72548;BME280;60570;50.848;6.776;2022-09-12T01:54:42;100599.13;;;19.93;56.50
72548;BME280;60570;50.848;6.776;2022-09-12T01:55:48;100596.31;;;19.93;56.69
72548;BME280;60570;50.848;6.776;2022-09-12T01:56:52;100595.50;;;19.89;56.38
72548;BME280;60570;50.848;6.776;2022-09-12T01:59:07;100593.09;;;19.94;56.59
72548;BME280;60570;50.848;6.776;2022-09-12T02:00:10;100585.84;;;19.93;56.58
72548;BME280;60570;50.848;6.776;2022-09-12T02:01:19;100586.63;;;19.90;56.51
72548;BME280;60570;50.848;6.776;2022-09-12T02:02:32;100579.78;;;19.91;56.45
72548;BME280;60570;50.848;6.776;2022-09-12T02:04:10;100578.56;;;19.82;56.79
72548;BME280;60570;50.848;6.776;2022-09-12T02:05:34;100580.59;;;19.92;56.32
72548;BME280;60570;50.848;6.776;2022-09-12T02:06:42;100576.97;;;19.95;56.17
72548;BME280;60570;50.848;6.776;2022-09-12T02:07:50;100577.38;;;19.93;56.34
72548;BME280;60570;50.848;6.776;2022-09-12T02:08:53;100571.75;;;19.93;56.46
72548;BME280;60570;50.848;6.776;2022-09-12T02:10:03;100579.81;;;19.98;56.28
72548;BME280;60570;50.848;6.776;2022-09-12T02:11:10;100576.59;;;20.00;56.01
72548;BME280;60570;50.848;6.776;2022-09-12T02:12:14;100576.22;;;20.01;56.24
72548;BME280;60570;50.848;6.776;2022-09-12T02:14:37;100574.94;;;19.92;56.44
72548;BME280;60570;50.848;6.776;2022-09-12T02:15:43;100580.16;;;19.86;56.61
72548;BME280;60570;50.848;6.776;2022-09-12T02:16:51;100571.75;;;19.93;56.62
72548;BME280;60570;50.848;6.776;2022-09-12T02:17:55;100575.34;;;19.94;56.37
72548;BME280;60570;50.848;6.776;2022-09-12T02:19:02;100577.75;;;19.92;56.29
72548;BME280;60570;50.848;6.776;2022-09-12T02:20:17;100579.41;;;19.93;56.22
72548;BME280;60570;50.848;6.776;2022-09-12T02:21:21;100579.75;;;19.84;56.76
72548;BME280;60570;50.848;6.776;2022-09-12T02:22:26;100581.81;;;19.94;55.96
72548;BME280;60570;50.848;6.776;2022-09-12T02:23:28;100570.88;;;19.82;56.56
72548;BME280;60570;50.848;6.776;2022-09-12T02:24:35;100572.91;;;19.82;56.35
72548;BME280;60570;50.848;6.776;2022-09-12T02:25:41;100580.97;;;19.87;56.24
72548;BME280;60570;50.848;6.776;2022-09-12T02:26:47;100575.31;;;19.80;56.68
72548;BME280;60570;50.848;6.776;2022-09-12T02:27:53;100575.31;;;19.80;56.67
72548;BME280;60570;50.848;6.776;2022-09-12T02:28:56;100575.31;;;19.83;56.70
72548;BME280;60570;50.848;6.776;2022-09-12T02:29:57;100569.22;;;19.74;56.61
72548;BME280;60570;50.848;6.776;2022-09-12T02:30:59;100572.50;;;19.80;56.47
72548;BME280;60570;50.848;6.776;2022-09-12T02:32:13;100564.38;;;19.71;57.12
72548;BME280;60570;50.848;6.776;2022-09-12T02:33:44;100568.44;;;19.77;56.65
72548;BME280;60570;50.848;6.776;2022-09-12T02:34:58;100568.09;;;19.86;56.33
72548;BME280;60570;50.848;6.776;2022-09-12T02:38:45;100566.88;;;19.83;56.37
72548;BME280;60570;50.848;6.776;2022-09-12T02:39:46;100562.41;;;19.79;56.21
72548;BME280;60570;50.848;6.776;2022-09-12T02:40:47;100561.22;;;19.80;56.49
72548;BME280;60570;50.848;6.776;2022-09-12T02:41:51;100568.47;;;19.84;56.34
72548;BME280;60570;50.848;6.776;2022-09-12T02:42:54;100564.88;;;19.84;56.37
72548;BME280;60570;50.848;6.776;2022-09-12T02:43:55;100558.41;;;19.83;56.20
72548;BME280;60570;50.848;6.776;2022-09-12T02:44:55;100553.59;;;19.87;56.56
72548;BME280;60570;50.848;6.776;2022-09-12T02:45:56;100565.66;;;19.84;56.27
72548;BME280;60570;50.848;6.776;2022-09-12T02:47:08;100553.59;;;19.84;56.27
72548;BME280;60570;50.848;6.776;2022-09-12T02:48:14;100561.63;;;19.82;56.28
72548;BME280;60570;50.848;6.776;2022-09-12T02:49:16;100553.16;;;19.82;56.31
72548;BME280;60570;50.848;6.776;2022-09-12T02:50:17;100558.00;;;19.81;56.25
72548;BME280;60570;50.848;6.776;2022-09-12T02:51:19;100562.81;;;19.81;56.52
72548;BME280;60570;50.848;6.776;2022-09-12T02:52:20;100556.75;;;19.75;56.41
72548;BME280;60570;50.848;6.776;2022-09-12T02:53:21;100560.00;;;19.77;56.23
72548;BME280;60570;50.848;6.776;2022-09-12T02:54:22;100562.81;;;19.74;56.43
72548;BME280;60570;50.848;6.776;2022-09-12T02:55:23;100549.88;;;19.65;56.80
72548;BME280;60570;50.848;6.776;2022-09-12T02:56:27;100548.28;;;19.72;56.52
72548;BME280;60570;50.848;6.776;2022-09-12T02:57:28;100553.94;;;19.75;56.61
72548;BME280;60570;50.848;6.776;2022-09-12T02:58:29;100556.75;;;19.68;56.61
72548;BME280;60570;50.848;6.776;2022-09-12T02:59:31;100552.31;;;19.74;56.54
72548;BME280;60570;50.848;6.776;2022-09-12T03:00:36;100555.13;;;19.71;56.68
72548;BME280;60570;50.848;6.776;2022-09-12T03:06:32;100539.81;;;19.68;56.67
72548;BME280;60570;50.848;6.776;2022-09-12T03:09:14;100549.47;;;19.67;56.57
72548;BME280;60570;50.848;6.776;2022-09-12T03:10:43;100548.28;;;19.68;56.68
72548;BME280;60570;50.848;6.776;2022-09-12T03:12:10;100550.69;;;19.66;56.88
72548;BME280;60570;50.848;6.776;2022-09-12T03:16:09;100549.88;;;19.62;56.77
72548;BME280;60570;50.848;6.776;2022-09-12T03:17:26;100543.78;;;19.56;57.14
72548;BME280;60570;50.848;6.776;2022-09-12T03:18:53;100549.88;;;19.65;56.79
72548;BME280;60570;50.848;6.776;2022-09-12T03:20:10;100550.22;;;19.60;57.01
72548;BME280;60570;50.848;6.776;2022-09-12T03:21:27;100542.56;;;19.54;56.76
72548;BME280;60570;50.848;6.776;2022-09-12T03:25:16;100549.44;;;19.56;56.94
72548;BME280;60570;50.848;6.776;2022-09-12T03:26:30;100547.81;;;19.55;57.00
72548;BME280;60570;50.848;6.776;2022-09-12T03:27:58;100548.66;;;19.63;56.46
72548;BME280;60570;50.848;6.776;2022-09-12T03:29:06;100539.34;;;19.59;56.95
72548;BME280;60570;50.848;6.776;2022-09-12T03:30:07;100548.63;;;19.56;56.92
72548;BME280;60570;50.848;6.776;2022-09-12T03:31:19;100545.41;;;19.61;56.91
72548;BME280;60570;50.848;6.776;2022-09-12T03:32:38;100548.59;;;19.52;57.11
72548;BME280;60570;50.848;6.776;2022-09-12T03:33:39;100547.00;;;19.55;56.70
72548;BME280;60570;50.848;6.776;2022-09-12T03:34:39;100545.00;;;19.59;56.82
72548;BME280;60570;50.848;6.776;2022-09-12T03:35:39;100550.66;;;19.62;56.73
72548;BME280;60570;50.848;6.776;2022-09-12T03:36:40;100544.59;;;19.60;56.73
72548;BME280;60570;50.848;6.776;2022-09-12T03:37:40;100541.41;;;19.58;57.06
72548;BME280;60570;50.848;6.776;2022-09-12T03:38:41;100541.34;;;19.51;56.66
72548;BME280;60570;50.848;6.776;2022-09-12T03:39:41;100542.97;;;19.56;57.04
72548;BME280;60570;50.848;6.776;2022-09-12T03:40:42;100545.34;;;19.47;56.83
72548;BME280;60570;50.848;6.776;2022-09-12T03:41:43;100544.53;;;19.43;57.08
72548;BME280;60570;50.848;6.776;2022-09-12T03:42:43;100549.34;;;19.42;57.21
72548;BME280;60570;50.848;6.776;2022-09-12T03:43:44;100546.53;;;19.42;57.20
72548;BME280;60570;50.848;6.776;2022-09-12T03:44:45;100555.06;;;19.56;56.89
72548;BME280;60570;50.848;6.776;2022-09-12T03:45:49;100549.44;;;19.56;57.00
72548;BME280;60570;50.848;6.776;2022-09-12T03:46:50;100553.44;;;19.59;56.79
72548;BME280;60570;50.848;6.776;2022-09-12T03:47:50;100552.28;;;19.63;56.83
72548;BME280;60570;50.848;6.776;2022-09-12T03:48:51;100547.38;;;19.53;56.84
72548;BME280;60570;50.848;6.776;2022-09-12T03:49:51;100553.88;;;19.61;56.56
72548;BME280;60570;50.848;6.776;2022-09-12T03:50:51;100545.41;;;19.61;56.45
72548;BME280;60570;50.848;6.776;2022-09-12T03:51:52;100550.19;;;19.50;56.81
72548;BME280;60570;50.848;6.776;2022-09-12T03:52:52;100555.84;;;19.50;56.99
72548;BME280;60570;50.848;6.776;2022-09-12T03:53:53;100549.78;;;19.48;56.98
72548;BME280;60570;50.848;6.776;2022-09-12T03:54:53;100546.97;;;19.48;57.06
72548;BME280;60570;50.848;6.776;2022-09-12T03:55:54;100552.22;;;19.53;56.77
72548;BME280;60570;50.848;6.776;2022-09-12T03:56:54;100546.13;;;19.40;57.17
72548;BME280;60570;50.848;6.776;2022-09-12T03:57:54;100546.53;;;19.42;57.18
72548;BME280;60570;50.848;6.776;2022-09-12T03:58:55;100547.34;;;19.43;57.14
72548;BME280;60570;50.848;6.776;2022-09-12T03:59:56;100542.56;;;19.50;56.90
72548;BME280;60570;50.848;6.776;2022-09-12T04:00:56;100543.75;;;19.53;56.49
72548;BME280;60570;50.848;6.776;2022-09-12T04:01:57;100536.94;;;19.54;56.63
72548;BME280;60570;50.848;6.776;2022-09-12T04:02:57;100541.41;;;19.58;56.59
72548;BME280;60570;50.848;6.776;2022-09-12T04:03:58;100542.16;;;19.55;56.68
72548;BME280;60570;50.848;6.776;2022-09-12T04:04:58;100538.84;;;19.39;57.49
72548;BME280;60570;50.848;6.776;2022-09-12T04:05:59;100540.50;;;19.44;57.01
72548;BME280;60570;50.848;6.776;2022-09-12T04:06:59;100540.09;;;19.45;57.04
72548;BME280;60570;50.848;6.776;2022-09-12T04:07:59;100540.56;;;19.54;56.79
72548;BME280;60570;50.848;6.776;2022-09-12T04:09:00;100533.28;;;19.46;56.98
72548;BME280;60570;50.848;6.776;2022-09-12T04:10:00;100532.88;;;19.48;56.81
72548;BME280;60570;50.848;6.776;2022-09-12T04:11:02;100535.25;;;19.39;57.06
72548;BME280;60570;50.848;6.776;2022-09-12T04:12:03;100531.59;;;19.35;57.23
72548;BME280;60570;50.848;6.776;2022-09-12T04:13:04;100539.31;;;19.45;56.85
72548;BME280;60570;50.848;6.776;2022-09-12T04:14:04;100531.16;;;19.29;57.47
72548;BME280;60570;50.848;6.776;2022-09-12T04:15:05;100536.31;;;19.24;57.41
72548;BME280;60570;50.848;6.776;2022-09-12T04:16:07;100529.16;;;19.33;57.34
72548;BME280;60570;50.848;6.776;2022-09-12T04:17:08;100532.81;;;19.37;57.23
72548;BME280;60570;50.848;6.776;2022-09-12T04:18:08;100532.84;;;19.44;56.88
72548;BME280;60570;50.848;6.776;2022-09-12T04:19:10;100530.44;;;19.43;56.94
72548;BME280;60570;50.848;6.776;2022-09-12T04:20:10;100525.16;;;19.34;57.37
72548;BME280;60570;50.848;6.776;2022-09-12T04:21:14;100523.16;;;19.35;57.12
72548;BME280;60570;50.848;6.776;2022-09-12T04:22:15;100534.88;;;19.44;57.19
72548;BME280;60570;50.848;6.776;2022-09-12T04:23:16;100521.56;;;19.41;57.20
72548;BME280;60570;50.848;6.776;2022-09-12T04:24:16;100526.81;;;19.39;57.14
72548;BME280;60570;50.848;6.776;2022-09-12T04:25:17;100524.75;;;19.36;57.03
72548;BME280;60570;50.848;6.776;2022-09-12T04:26:18;100521.13;;;19.35;57.04
72548;BME280;60570;50.848;6.776;2022-09-12T04:27:19;100520.72;;;19.33;57.11
72548;BME280;60570;50.848;6.776;2022-09-12T04:28:19;100513.00;;;19.27;57.07
72548;BME280;60570;50.848;6.776;2022-09-12T04:29:19;100515.13;;;19.37;57.21
72548;BME280;60570;50.848;6.776;2022-09-12T04:30:20;100518.69;;;19.34;57.21
72548;BME280;60570;50.848;6.776;2022-09-12T04:31:20;100520.72;;;19.33;57.04
72548;BME280;60570;50.848;6.776;2022-09-12T04:32:21;100520.75;;;19.40;57.06
72548;BME280;60570;50.848;6.776;2022-09-12T04:33:22;100518.72;;;19.37;56.94
72548;BME280;60570;50.848;6.776;2022-09-12T04:34:22;100520.34;;;19.35;56.63
72548;BME280;60570;50.848;6.776;2022-09-12T04:35:23;100523.59;;;19.40;57.07
72548;BME280;60570;50.848;6.776;2022-09-12T04:36:24;100517.13;;;19.43;56.94
72548;BME280;60570;50.848;6.776;2022-09-12T04:37:25;100521.53;;;19.34;57.20
72548;BME280;60570;50.848;6.776;2022-09-12T04:38:25;100515.13;;;19.37;57.09
72548;BME280;60570;50.848;6.776;2022-09-12T04:39:26;100516.72;;;19.41;57.20
72548;BME280;60570;50.848;6.776;2022-09-12T04:40:28;100513.88;;;19.34;57.05
72548;BME280;60570;50.848;6.776;2022-09-12T04:41:31;100512.72;;;19.39;56.98
72548;BME280;60570;50.848;6.776;2022-09-12T04:42:32;100517.13;;;19.43;56.86
72548;BME280;60570;50.848;6.776;2022-09-12T04:43:32;100518.38;;;19.46;56.72
72548;BME280;60570;50.848;6.776;2022-09-12T04:44:33;100511.91;;;19.45;56.64
72548;BME280;60570;50.848;6.776;2022-09-12T04:45:33;100518.78;;;19.44;56.77
72548;BME280;60570;50.848;6.776;2022-09-12T04:46:36;100515.13;;;19.44;56.93
72548;BME280;60570;50.848;6.776;2022-09-12T04:47:37;100511.91;;;19.45;56.63
72548;BME280;60570;50.848;6.776;2022-09-12T04:48:38;100509.91;;;19.46;56.43
72548;BME280;60570;50.848;6.776;2022-09-12T04:49:38;100515.97;;;19.44;56.71
72548;BME280;60570;50.848;6.776;2022-09-12T04:50:39;100513.56;;;19.46;56.83
72548;BME280;60570;50.848;6.776;2022-09-12T04:51:40;100507.84;;;19.39;56.91
72548;BME280;60570;50.848;6.776;2022-09-12T04:52:41;100511.09;;;19.41;56.89
72548;BME280;60570;50.848;6.776;2022-09-12T04:53:42;100507.50;;;19.41;56.86
72548;BME280;60570;50.848;6.776;2022-09-12T04:54:44;100508.25;;;19.38;56.78
72548;BME280;60570;50.848;6.776;2022-09-12T04:55:45;100502.63;;;19.41;56.82
72548;BME280;60570;50.848;6.776;2022-09-12T04:56:47;100510.31;;;19.41;56.84
72548;BME280;60570;50.848;6.776;2022-09-12T04:57:48;100503.03;;;19.36;56.63
72548;BME280;60570;50.848;6.776;2022-09-12T04:58:48;100507.44;;;19.37;56.93
72548;BME280;60570;50.848;6.776;2022-09-12T04:59:49;100501.31;;;19.25;57.30
72548;BME280;60570;50.848;6.776;2022-09-12T05:00:49;100498.94;;;19.27;57.16
72548;BME280;60570;50.848;6.776;2022-09-12T05:01:50;100506.56;;;19.30;57.13
72548;BME280;60570;50.848;6.776;2022-09-12T05:02:50;100503.00;;;19.33;56.89
72548;BME280;60570;50.848;6.776;2022-09-12T05:03:51;100500.94;;;19.26;57.21
72548;BME280;60570;50.848;6.776;2022-09-12T05:04:51;100501.34;;;19.32;56.92
72548;BME280;60570;50.848;6.776;2022-09-12T05:05:52;100493.75;;;19.32;56.78
72548;BME280;60570;50.848;6.776;2022-09-12T05:06:52;100498.53;;;19.28;57.17
72548;BME280;60570;50.848;6.776;2022-09-12T05:07:52;100502.19;;;19.32;56.91
72548;BME280;60570;50.848;6.776;2022-09-12T05:08:53;100497.72;;;19.31;56.99
72548;BME280;60570;50.848;6.776;2022-09-12T05:09:55;100490.06;;;19.28;57.69
72548;BME280;60570;50.848;6.776;2022-09-12T05:10:55;100492.81;;;19.14;58.00
72548;BME280;60570;50.848;6.776;2022-09-12T05:11:56;100493.06;;;18.92;59.15
72548;BME280;60570;50.848;6.776;2022-09-12T05:12:57;100500.31;;;18.42;60.99
72548;BME280;60570;50.848;6.776;2022-09-12T05:13:57;100498.34;;;18.06;61.90
72548;BME280;60570;50.848;6.776;2022-09-12T05:14:58;100497.00;;;17.92;62.82
72548;BME280;60570;50.848;6.776;2022-09-12T05:16:00;100500.50;;;17.82;63.06
72548;BME280;60570;50.848;6.776;2022-09-12T05:17:02;100502.31;;;18.01;62.42
72548;BME280;60570;50.848;6.776;2022-09-12T05:18:03;100496.28;;;17.99;62.10
72548;BME280;60570;50.848;6.776;2022-09-12T05:19:04;100497.19;;;18.10;61.83
72548;BME280;60570;50.848;6.776;2022-09-12T05:20:04;100493.28;;;18.22;61.30
72548;BME280;60570;50.848;6.776;2022-09-12T05:21:06;100495.00;;;18.37;60.87
72548;BME280;60570;50.848;6.776;2022-09-12T05:22:08;100501.53;;;18.44;60.37
72548;BME280;60570;50.848;6.776;2022-09-12T05:23:09;100498.81;;;18.51;60.00
72548;BME280;60570;50.848;6.776;2022-09-12T05:24:09;100505.69;;;18.57;59.93
72548;BME280;60570;50.848;6.776;2022-09-12T05:25:10;100504.09;;;18.60;59.70
72548;BME280;60570;50.848;6.776;2022-09-12T05:26:13;100507.34;;;18.65;59.61
72548;BME280;60570;50.848;6.776;2022-09-12T05:27:14;100507.84;;;18.78;59.17
72548;BME280;60570;50.848;6.776;2022-09-12T05:28:15;100503.41;;;18.77;58.65
72548;BME280;60570;50.848;6.776;2022-09-12T05:29:15;100505.03;;;18.78;58.91
72548;BME280;60570;50.848;6.776;2022-09-12T05:30:16;100499.41;;;18.78;59.09
72548;BME280;60570;50.848;6.776;2022-09-12T05:31:17;100506.63;;;18.75;59.14
72548;BME280;60570;50.848;6.776;2022-09-12T05:32:18;100510.28;;;18.79;58.92
72548;BME280;60570;50.848;6.776;2022-09-12T05:33:19;100506.69;;;18.83;57.99
72548;BME280;60570;50.848;6.776;2022-09-12T05:34:20;100506.28;;;18.81;59.02
72548;BME280;60570;50.848;6.776;2022-09-12T05:35:21;100509.50;;;18.83;58.70
72548;BME280;60570;50.848;6.776;2022-09-12T05:36:23;100502.66;;;18.80;58.74
72548;BME280;60570;50.848;6.776;2022-09-12T05:37:24;100505.91;;;18.89;58.39
72548;BME280;60570;50.848;6.776;2022-09-12T05:38:25;100505.50;;;18.87;58.67
72548;BME280;60570;50.848;6.776;2022-09-12T05:39:28;100514.44;;;18.96;58.12
72548;BME280;60570;50.848;6.776;2022-09-12T05:40:28;100504.75;;;18.90;58.30
72548;BME280;60570;50.848;6.776;2022-09-12T05:41:30;100509.53;;;18.86;58.59
72548;BME280;60570;50.848;6.776;2022-09-12T05:42:32;100512.75;;;18.88;58.53
72548;BME280;60570;50.848;6.776;2022-09-12T05:43:33;100509.13;;;18.84;58.55
72548;BME280;60570;50.848;6.776;2022-09-12T05:44:33;100509.13;;;18.84;58.64
72548;BME280;60570;50.848;6.776;2022-09-12T05:45:34;100508.28;;;18.84;58.73
72548;BME280;60570;50.848;6.776;2022-09-12T05:46:40;100517.97;;;18.86;58.34
72548;BME280;60570;50.848;6.776;2022-09-12T05:47:41;100517.56;;;18.84;58.28
72548;BME280;60570;50.848;6.776;2022-09-12T05:48:44;100512.34;;;18.86;58.41
72548;BME280;60570;50.848;6.776;2022-09-12T05:49:45;100512.75;;;18.85;58.31
72548;BME280;60570;50.848;6.776;2022-09-12T05:50:47;100516.75;;;18.87;58.26
72548;BME280;60570;50.848;6.776;2022-09-12T05:51:47;100518.00;;;18.90;58.01
72548;BME280;60570;50.848;6.776;2022-09-12T05:52:47;100514.84;;;18.98;58.03
72548;BME280;60570;50.848;6.776;2022-09-12T05:53:51;100518.84;;;18.97;57.94
72548;BME280;60570;50.848;6.776;2022-09-12T05:54:52;100522.03;;;18.92;58.26
72548;BME280;60570;50.848;6.776;2022-09-12T05:56:04;100513.63;;;18.99;58.03
72548;BME280;60570;50.848;6.776;2022-09-12T05:57:05;100524.88;;;18.96;57.99
72548;BME280;60570;50.848;6.776;2022-09-12T05:58:05;100519.19;;;18.89;58.21
72548;BME280;60570;50.848;6.776;2022-09-12T05:59:11;100522.41;;;18.87;58.35
72548;BME280;60570;50.848;6.776;2022-09-12T06:00:12;100524.38;;;18.83;58.25
72548;BME280;60570;50.848;6.776;2022-09-12T06:01:15;100527.19;;;18.83;58.38
72548;BME280;60570;50.848;6.776;2022-09-12T06:02:16;100517.19;;;18.89;58.25
72548;BME280;60570;50.848;6.776;2022-09-12T06:03:17;100522.84;;;18.93;58.72
72548;BME280;60570;50.848;6.776;2022-09-12T06:04:18;100524.47;;;18.94;58.14
72548;BME280;60570;50.848;6.776;2022-09-12T06:05:18;100520.84;;;18.93;58.31
72548;BME280;60570;50.848;6.776;2022-09-12T06:06:21;100519.59;;;18.91;58.28
72548;BME280;60570;50.848;6.776;2022-09-12T06:07:22;100524.41;;;18.87;58.40
72548;BME280;60570;50.848;6.776;2022-09-12T06:08:22;100520.00;;;18.93;58.19
72548;BME280;60570;50.848;6.776;2022-09-12T06:09:22;100524.81;;;18.89;58.25